Time;durP1;ratioP1;P1;durP2;ratioP2;P2;SDS_P1;SDS_P2;PMS_P1;PMS_P2;Temp;Humidity;BMP_temperature;BMP_pressure;BME280_temperature;BME280_humidity;BME280_pressure;Samples;Min_cycle;Max_cycle;Signal;HPM_P1;HPM_P2
2023/01/28 00:01:36;;;;;;;2.53;1.73;;;;;;;12.59;84.07;101720.38;5030673;28;20041;-76
2023/01/28 00:04:05;;;;;;;1.63;1.02;;;;;;;12.55;86.19;101723.69;5032818;28;20049;-75
2023/01/28 00:06:33;;;;;;;1.45;1.08;;;;;;;12.54;83.48;101717.63;5031733;28;20495;-73
2023/01/28 00:09:02;;;;;;;1.90;1.10;;;;;;;12.57;81.21;101724.63;5032798;28;20049;-75
2023/01/28 00:11:30;;;;;;;2.83;0.65;;;;;;;12.58;80.15;101705.66;5032030;28;20617;-74
2023/01/28 00:13:59;;;;;;;2.00;0.90;;;;;;;12.62;79.97;101709.22;5032052;28;20080;-74
2023/01/28 00:16:29;;;;;;;1.92;1.02;;;;;;;12.64;79.75;101716.25;5032900;28;20053;-74
2023/01/28 00:18:58;;;;;;;3.58;1.40;;;;;;;12.64;81.54;101708.44;5031595;28;20081;-75
2023/01/28 00:21:27;;;;;;;1.98;1.63;;;;;;;12.71;81.96;101712.16;5033069;28;20046;-74
2023/01/28 00:23:56;;;;;;;2.80;1.55;;;;;;;12.77;82.69;101708.06;5030978;28;20064;-83
2023/01/28 00:26:25;;;;;;;4.40;1.77;;;;;;;12.77;82.45;101707.19;5033368;28;20049;-76
2023/01/28 00:28:54;;;;;;;3.80;1.58;;;;;;;12.76;83.31;101706.31;5030885;28;20573;-79
2023/01/28 00:31:24;;;;;;;5.90;1.70;;;;;;;12.75;82.10;101699.34;5033506;28;20460;-77
2023/01/28 00:33:56;;;;;;;1.52;0.80;;;;;;;12.67;74.68;101703.38;5033275;28;20124;-79
2023/01/28 00:36:26;;;;;;;1.02;0.70;;;;;;;12.64;75.21;101695.47;5031544;28;20521;-75
2023/01/28 00:38:56;;;;;;;2.40;1.23;;;;;;;12.59;74.33;101697.03;5017404;28;20049;-73
2023/01/28 00:41:25;;;;;;;2.13;1.15;;;;;;;12.52;73.84;101687.25;5022118;28;20074;-73
2023/01/28 00:43:54;;;;;;;5.80;1.17;;;;;;;12.45;71.78;101687.84;5013784;28;20046;-74
2023/01/28 00:46:24;;;;;;;1.30;0.50;;;;;;;12.38;70.95;101685.88;5005407;28;20100;-75
2023/01/28 00:48:54;;;;;;;0.57;0.20;;;;;;;12.30;70.61;101683.88;5005374;28;20050;-76
2023/01/28 00:51:23;;;;;;;0.38;0.30;;;;;;;12.25;72.14;101680.19;5001055;28;20499;-74
2023/01/28 00:53:52;;;;;;;1.30;0.47;;;;;;;12.23;71.83;101676.69;5006325;28;20496;-76
2023/01/28 00:56:21;;;;;;;0.30;0.30;;;;;;;12.25;72.73;101680.19;5011494;28;20129;-77
2023/01/28 00:58:49;;;;;;;0.98;0.25;;;;;;;12.27;73.08;101678.56;5006090;28;20045;-77
2023/01/28 01:01:21;;;;;;;0.45;0.15;;;;;;;12.27;72.58;101681.16;5007012;28;20050;-76
2023/01/28 01:04:01;;;;;;;2.92;0.20;;;;;;;12.28;71.97;101669.06;5012532;28;20061;-79
2023/01/28 01:06:33;;;;;;;1.10;0.30;;;;;;;12.19;71.66;101659.25;5013915;28;20173;-78
2023/01/28 01:09:01;;;;;;;3.35;0.80;;;;;;;12.25;72.27;101675.00;5013339;28;20133;-76
2023/01/28 01:11:30;;;;;;;0.90;0.60;;;;;;;12.25;72.77;101674.13;5005918;28;20050;-77
2023/01/28 01:14:00;;;;;;;0.95;0.30;;;;;;;12.24;71.43;101668.06;5006102;28;20046;-75
2023/01/28 01:16:32;;;;;;;0.55;0.30;;;;;;;12.20;69.80;101670.50;5018460;28;20056;-75
2023/01/28 01:19:01;;;;;;;3.83;0.43;;;;;;;12.14;68.73;101671.16;5006646;28;20511;-79
2023/01/28 01:21:31;;;;;;;2.20;0.38;;;;;;;12.10;68.85;101674.47;5006842;28;20049;-75
2023/01/28 01:24:00;;;;;;;1.55;0.30;;;;;;;12.05;70.45;101670.78;5012693;28;20543;-79
2023/01/28 01:26:28;;;;;;;1.35;0.57;;;;;;;12.01;70.73;101671.50;5006021;28;20318;-79
2023/01/28 01:28:57;;;;;;;0.73;0.35;;;;;;;11.99;70.65;101666.25;5010675;28;20050;-80
2023/01/28 01:31:26;;;;;;;0.70;0.35;;;;;;;11.96;70.25;101660.97;5008108;28;20046;-77
2023/01/28 01:33:54;;;;;;;0.50;0.20;;;;;;;11.89;70.75;101659.84;5013732;28;20296;-77
2023/01/28 01:36:23;;;;;;;1.73;0.30;;;;;;;11.82;71.39;101660.41;5011743;28;20050;-75
2023/01/28 01:38:56;;;;;;;0.35;0.20;;;;;;;11.77;72.08;101663.63;5002533;28;20045;-78
2023/01/28 01:41:28;;;;;;;0.20;0.20;;;;;;;11.76;72.33;101665.34;5017137;28;20060;-77
2023/01/28 01:43:59;;;;;;;1.38;0.43;;;;;;;11.70;74.73;101659.91;5025755;28;20514;-76
2023/01/28 01:46:34;;;;;;;1.52;0.60;;;;;;;11.65;78.31;101664.03;5026977;28;20171;-75
2023/01/28 01:49:13;;;;;;;5.57;0.60;;;;;;;11.61;79.34;101667.31;5033526;28;20408;-77
2023/01/28 01:51:42;;;;;;;2.05;0.68;;;;;;;11.57;80.55;101665.41;5020090;28;20415;-77
2023/01/28 01:54:12;;;;;;;1.40;0.60;;;;;;;11.52;80.56;101668.75;5031774;28;20514;-77
2023/01/28 01:56:44;;;;;;;0.70;0.60;;;;;;;11.48;81.11;101676.31;5025717;28;20053;-78
2023/01/28 01:59:15;;;;;;;0.73;0.43;;;;;;;11.39;81.64;101666.47;5026255;28;20041;-79
2023/01/28 02:01:46;;;;;;;1.23;0.45;;;;;;;11.34;81.42;101673.19;5021485;28;20421;-77
2023/01/28 02:04:20;;;;;;;2.40;0.30;;;;;;;11.27;81.51;101668.53;5026361;28;20472;-75
2023/01/28 02:06:49;;;;;;;0.45;0.25;;;;;;;11.17;80.74;101669.88;5026614;28;20495;-76
2023/01/28 02:09:30;;;;;;;0.80;0.40;;;;;;;11.09;81.18;101677.31;5027398;28;20049;-75
2023/01/28 02:12:01;;;;;;;0.52;0.30;;;;;;;10.98;81.30;101677.69;5032180;28;20049;-75
2023/01/28 02:14:33;;;;;;;0.57;0.30;;;;;;;10.86;82.25;101678.06;5024725;28;20511;-75
2023/01/28 02:17:02;;;;;;;0.70;0.30;;;;;;;10.79;83.23;101676.00;5032008;28;20056;-74
2023/01/28 02:19:38;;;;;;;1.20;0.30;;;;;;;10.71;83.07;101678.25;5026271;28;20057;-74
2023/01/28 02:22:34;;;;;;;0.50;0.30;;;;;;;10.66;83.97;101685.84;5026819;28;20125;-75
2023/01/28 02:25:55;;;;;;;0.80;0.50;;;;;;;10.60;84.39;101690.72;5022124;28;20057;-73
2023/01/28 02:28:30;;;;;;;0.57;0.40;;;;;;;10.54;85.75;101700.81;5021158;28;20376;-73
2023/01/28 02:31:05;;;;;;;1.48;0.65;;;;;;;10.50;86.14;101698.03;5028737;28;20045;-74
2023/01/28 02:33:40;;;;;;;1.15;0.35;;;;;;;10.40;87.21;101697.63;5033280;28;20052;-74
2023/01/28 02:36:18;;;;;;;2.15;0.77;;;;;;;10.37;87.19;101694.00;5021605;28;20188;-73
2023/01/28 02:38:51;;;;;;;1.08;0.70;;;;;;;10.33;88.12;101694.66;5027978;28;20116;-74
2023/01/28 02:41:29;;;;;;;5.93;1.00;;;;;;;10.30;88.30;101686.78;5028786;28;20065;-74
2023/01/28 02:44:02;;;;;;;2.47;0.82;;;;;;;10.27;88.93;101696.13;5032228;28;20050;-74
2023/01/28 02:49:29;;;;;;;1.63;0.80;;;;;;;10.10;89.46;101691.91;5025894;28;20068;-74
2023/01/28 02:52:17;;;;;;;0.68;0.50;;;;;;;10.01;90.34;101696.63;5022675;28;20124;-73
2023/01/28 02:54:55;;;;;;;1.35;0.80;;;;;;;9.91;90.83;101697.00;5022388;28;20053;-74
2023/01/28 02:57:35;;;;;;;1.23;0.60;;;;;;;9.82;91.91;101698.34;5023668;28;20049;-74
2023/01/28 03:00:12;;;;;;;1.27;0.70;;;;;;;9.81;91.79;101701.75;5021224;28;20900;-75
2023/01/28 03:02:48;;;;;;;0.85;0.38;;;;;;;9.80;92.08;101702.56;5024986;28;20049;-74
2023/01/28 03:05:22;;;;;;;0.90;0.50;;;;;;;9.77;91.62;101699.81;5024758;28;20053;-76
2023/01/28 03:07:52;;;;;;;1.08;0.68;;;;;;;9.72;91.71;101698.72;5018764;28;20046;-75
2023/01/28 03:10:22;;;;;;;1.17;0.60;;;;;;;9.71;92.20;101702.13;5030837;28;20053;-77
2023/01/28 03:38:21;;;;;;;0.73;0.22;;;;;;;9.26;94.25;101680.97;5030636;28;20053;-75
2023/01/28 03:40:51;;;;;;;0.57;0.38;;;;;;;9.23;95.66;101683.41;5019484;28;20046;-80
2023/01/28 03:43:20;;;;;;;0.93;0.57;;;;;;;9.20;95.70;101685.84;5026310;28;20060;-78
2023/01/28 03:45:50;;;;;;;2.60;0.63;;;;;;;9.20;96.31;101685.84;5025464;28;20407;-77
2023/01/28 03:48:21;;;;;;;0.57;0.38;;;;;;;9.22;96.65;101686.81;5016354;28;20058;-74
2023/01/28 03:50:50;;;;;;;0.88;0.38;;;;;;;9.23;95.76;101683.41;5024941;28;20498;-76
2023/01/28 03:53:19;;;;;;;1.73;0.35;;;;;;;9.20;96.11;101678.97;5024594;28;20046;-77
2023/01/28 03:55:50;;;;;;;1.02;0.40;;;;;;;9.19;96.28;101689.25;5035122;28;20042;-76
2023/01/28 03:58:19;;;;;;;0.63;0.43;;;;;;;9.19;97.43;101684.06;5026434;28;20057;-75
2023/01/28 04:00:48;;;;;;;0.98;0.32;;;;;;;9.19;97.32;101681.50;5021806;28;20530;-77
2023/01/28 04:03:20;;;;;;;0.98;0.40;;;;;;;9.17;97.13;101677.94;5026193;28;20065;-76
2023/01/28 04:06:00;;;;;;;0.40;0.28;;;;;;;9.15;97.70;101676.97;5020958;28;20053;-77
2023/01/28 04:08:29;;;;;;;5.32;0.70;;;;;;;9.15;98.78;101684.72;5021782;28;20053;-75
2023/01/28 04:10:57;;;;;;;2.08;0.40;;;;;;;9.14;98.75;101673.53;5022665;28;20046;-79
2023/01/28 04:13:26;;;;;;;0.93;0.55;;;;;;;9.17;97.89;101676.25;5024534;28;20076;-76
2023/01/28 04:15:54;;;;;;;1.70;0.45;;;;;;;9.14;96.73;101673.53;5023432;28;20076;-76
2023/01/28 04:18:26;;;;;;;2.88;0.70;;;;;;;9.16;96.73;101668.41;5028390;28;20056;-75
2023/01/28 04:20:54;;;;;;;1.90;0.80;;;;;;;9.21;96.46;101678.19;5028926;28;20113;-73
2023/01/28 04:23:23;;;;;;;1.75;0.80;;;;;;;9.21;95.57;101682.47;5026339;28;20046;-74
2023/01/28 04:25:59;;;;;;;5.80;1.20;;;;;;;9.16;96.67;101671.00;5020620;28;20050;-75
2023/01/28 04:28:28;;;;;;;2.38;0.52;;;;;;;9.17;95.62;101673.66;5029678;28;20042;-76
2023/01/28 04:31:03;;;;;;;2.97;0.93;;;;;;;9.13;96.46;101663.09;5030699;28;20140;-76
2023/01/28 04:33:33;;;;;;;1.20;0.63;;;;;;;9.08;96.70;101660.28;5030163;28;20487;-75
2023/01/28 04:36:01;;;;;;;1.58;0.85;;;;;;;9.04;96.78;101658.34;5030559;28;20489;-74
2023/01/28 04:38:30;;;;;;;0.95;0.63;;;;;;;8.94;97.96;101662.19;5030076;28;20499;-74
2023/01/28 04:40:58;;;;;;;1.52;0.77;;;;;;;8.84;98.79;101653.88;5032763;28;20053;-74
2023/01/28 04:43:27;;;;;;;0.85;0.47;;;;;;;8.79;98.96;101659.69;5029795;28;20343;-75
2023/01/28 04:45:56;;;;;;;1.35;0.55;;;;;;;8.73;100.00;101653.34;5031105;28;20049;-75
2023/01/28 04:48:24;;;;;;;2.78;0.40;;;;;;;8.72;100.00;101656.72;5025881;28;20042;-75
2023/01/28 04:50:54;;;;;;;1.38;0.63;;;;;;;8.71;100.00;101658.44;5026456;28;20045;-74
2023/01/28 04:53:23;;;;;;;0.60;0.45;;;;;;;8.71;100.00;101668.75;5029190;28;20606;-74
2023/01/28 04:55:52;;;;;;;0.73;0.40;;;;;;;8.64;99.14;101661.50;5036734;28;20518;-77
2023/01/28 04:58:20;;;;;;;1.65;0.30;;;;;;;8.58;99.46;101668.91;5030722;28;20045;-77
2023/01/28 05:00:55;;;;;;;2.50;0.47;;;;;;;8.49;100.00;101659.00;5030237;28;20051;-77
2023/01/28 05:03:23;;;;;;;2.33;0.40;;;;;;;8.48;100.00;101667.56;5032839;28;20049;-76
2023/01/28 05:05:54;;;;;;;1.60;0.60;;;;;;;8.38;100.00;101658.44;5030279;28;20049;-75
2023/01/28 05:08:22;;;;;;;1.20;0.45;;;;;;;8.34;100.00;101658.19;5030458;28;20038;-77
2023/01/28 05:10:53;;;;;;;4.32;0.47;;;;;;;8.31;100.00;101660.56;5030220;28;20046;-76
2023/01/28 05:13:22;;;;;;;2.00;0.50;;;;;;;8.28;100.00;101665.59;5029992;28;20071;-77
2023/01/28 05:15:53;;;;;;;2.25;0.52;;;;;;;8.19;100.00;101661.69;5033393;28;20066;-76
2023/01/28 05:18:22;;;;;;;4.90;0.93;;;;;;;8.12;100.00;101663.88;5033691;28;20045;-77
2023/01/28 05:20:50;;;;;;;0.68;0.47;;;;;;;8.03;100.00;101664.25;5027942;28;20052;-74
2023/01/28 05:23:20;;;;;;;0.73;0.38;;;;;;;7.87;100.00;101659.06;5023114;28;20491;-76
2023/01/28 05:25:49;;;;;;;1.00;0.45;;;;;;;7.94;100.00;101668.91;5028685;28;20132;-76
2023/01/28 05:28:18;;;;;;;1.27;0.50;;;;;;;7.85;100.00;101671.88;5028330;28;20223;-74
2023/01/28 05:30:46;;;;;;;3.67;0.50;;;;;;;7.84;100.00;101671.81;5029562;28;20045;-75
2023/01/28 05:33:15;;;;;;;1.15;0.50;;;;;;;7.81;100.00;101667.38;5035799;28;20056;-76
2023/01/28 05:35:44;;;;;;;1.85;0.40;;;;;;;7.79;100.00;101666.41;5035370;28;20065;-75
2023/01/28 05:38:12;;;;;;;1.40;0.57;;;;;;;7.72;100.00;101662.59;5034535;28;20586;-75
2023/01/28 05:40:43;;;;;;;5.82;0.50;;;;;;;7.64;100.00;101660.38;5033136;28;20510;-76
2023/01/28 05:43:11;;;;;;;2.38;0.80;;;;;;;7.56;100.00;101659.97;5021167;28;20065;-76
2023/01/28 05:45:40;;;;;;;0.77;0.35;;;;;;;7.50;100.00;101652.75;5022567;28;20056;-77
2023/01/28 05:48:08;;;;;;;0.43;0.22;;;;;;;7.47;100.00;101654.28;5032028;28;20137;-76
2023/01/28 05:50:37;;;;;;;0.75;0.60;;;;;;;7.42;100.00;101656.63;5032175;28;20107;-76
2023/01/28 05:53:07;;;;;;;1.40;0.32;;;;;;;7.37;100.00;101649.41;5032997;28;20060;-74
2023/01/28 05:55:35;;;;;;;2.03;0.47;;;;;;;7.32;100.00;101651.72;5021476;28;20052;-76
2023/01/28 05:58:05;;;;;;;1.75;0.20;;;;;;;7.30;100.00;101648.16;5033549;28;20057;-76
2023/01/28 06:00:34;;;;;;;1.08;0.32;;;;;;;7.26;100.00;101641.06;5031675;28;20038;-77
2023/01/28 06:03:03;;;;;;;0.90;0.38;;;;;;;7.23;100.00;101644.34;5031430;28;20080;-77
2023/01/28 06:05:31;;;;;;;2.60;0.75;;;;;;;7.18;100.00;101650.94;5031516;28;20045;-77
2023/01/28 06:08:00;;;;;;;0.93;0.40;;;;;;;7.14;100.00;101643.84;5030351;28;20049;-75
2023/01/28 06:10:28;;;;;;;1.17;0.38;;;;;;;7.08;100.00;101643.50;5031966;28;20051;-74
2023/01/28 06:12:57;;;;;;;0.40;0.22;;;;;;;7.04;100.00;101647.56;5030653;28;20052;-75
2023/01/28 06:15:27;;;;;;;2.83;0.55;;;;;;;7.01;100.00;101655.13;5027598;28;20431;-76
2023/01/28 06:17:56;;;;;;;4.20;0.43;;;;;;;6.94;100.00;101650.41;5028337;28;20056;-77
2023/01/28 06:20:24;;;;;;;0.32;0.30;;;;;;;6.91;100.00;101660.50;5029114;28;20104;-81
2023/01/28 06:22:53;;;;;;;0.30;0.20;;;;;;;6.87;100.00;101651.75;5029124;28;20561;-75
2023/01/28 06:25:22;;;;;;;3.92;0.60;;;;;;;6.84;99.63;101650.66;5029538;28;20049;-77
2023/01/28 06:27:50;;;;;;;0.60;0.35;;;;;;;6.78;99.06;101658.91;5025895;28;20045;-77
2023/01/28 06:30:19;;;;;;;1.33;0.43;;;;;;;6.74;100.00;101651.81;5025559;28;20049;-77
2023/01/28 06:32:55;;;;;;;1.88;0.57;;;;;;;6.72;99.63;101653.41;5031271;28;20049;-77
2023/01/28 06:35:24;;;;;;;1.45;0.40;;;;;;;6.68;100.00;101661.72;5021597;28;20543;-79
2023/01/28 06:37:53;;;;;;;0.43;0.22;;;;;;;6.66;99.92;101663.31;5032791;28;20117;-74
2023/01/28 06:40:23;;;;;;;1.05;0.47;;;;;;;6.62;100.00;101658.78;5031037;28;20042;-73
2023/01/28 06:42:52;;;;;;;0.38;0.35;;;;;;;6.58;100.00;101654.28;5028583;28;20050;-73
2023/01/28 06:45:20;;;;;;;1.38;0.82;;;;;;;6.54;100.00;101648.03;5031619;28;20045;-73
2023/01/28 06:47:51;;;;;;;2.38;0.77;;;;;;;6.50;100.00;101631.56;5028961;28;20053;-73
2023/01/28 06:50:19;;;;;;;2.72;1.33;;;;;;;6.47;100.00;101646.78;5029735;28;20103;-73
2023/01/28 06:52:48;;;;;;;5.20;1.52;;;;;;;6.42;100.00;101639.59;5020763;28;20522;-72
2023/01/28 06:55:17;;;;;;;8.13;3.67;;;;;;;6.39;100.00;101640.31;5030513;28;20048;-73
2023/01/28 06:57:45;;;;;;;9.25;4.28;;;;;;;6.36;100.00;101640.09;5028252;28;20054;-74
2023/01/28 07:00:15;;;;;;;7.43;4.00;;;;;;;6.32;99.86;101639.81;5023551;28;20077;-75
2023/01/28 07:02:43;;;;;;;10.98;4.38;;;;;;;6.28;99.78;101644.78;5026846;28;20050;-76
2023/01/28 07:05:14;;;;;;;11.00;3.42;;;;;;;6.26;100.00;101642.91;5026327;28;20057;-76
2023/01/28 07:07:42;;;;;;;5.75;3.03;;;;;;;6.24;100.00;101641.94;5027769;28;20049;-76
2023/01/28 07:10:12;;;;;;;8.90;3.65;;;;;;;6.21;100.00;101647.78;5028199;28;20046;-75
2023/01/28 07:12:41;;;;;;;8.13;3.97;;;;;;;6.21;100.00;101646.91;5030819;28;20042;-75
2023/01/28 07:15:11;;;;;;;13.05;3.78;;;;;;;6.20;100.00;101647.69;5026977;28;20050;-76
2023/01/28 07:17:41;;;;;;;7.50;3.45;;;;;;;6.12;100.00;101631.81;5029578;28;20049;-76
2023/01/28 07:20:11;;;;;;;5.68;3.45;;;;;;;6.20;100.00;101642.53;5029305;28;20456;-75
2023/01/28 07:22:42;;;;;;;7.15;2.60;;;;;;;6.20;100.00;101646.00;5023661;28;20046;-76
2023/01/28 07:25:12;;;;;;;10.70;3.10;;;;;;;6.21;100.00;101641.75;5029287;28;20061;-76
2023/01/28 07:27:41;;;;;;;7.95;3.17;;;;;;;6.23;100.00;101641.06;5028227;28;20492;-76
2023/01/28 07:30:10;;;;;;;6.28;2.90;;;;;;;6.22;100.00;101643.53;5028153;28;20734;-76
2023/01/28 07:32:39;;;;;;;9.55;3.83;;;;;;;6.23;100.00;101635.00;5021926;28;20046;-76
2023/01/28 07:35:09;;;;;;;5.78;2.88;;;;;;;6.26;100.00;101635.22;5028605;28;20050;-75
2023/01/28 07:37:37;;;;;;;5.70;3.35;;;;;;;6.25;100.00;101628.28;5018647;28;20050;-76
2023/01/28 07:40:09;;;;;;;6.55;2.97;;;;;;;6.26;100.00;101632.66;5028686;28;20487;-76
2023/01/28 07:42:37;;;;;;;7.30;2.97;;;;;;;6.29;100.00;101630.25;5030486;28;20683;-75
2023/01/28 07:45:06;;;;;;;8.40;2.13;;;;;;;6.27;100.00;101626.69;5027085;28;20045;-76
2023/01/28 07:47:35;;;;;;;8.30;3.33;;;;;;;6.25;100.00;101620.56;5024139;28;20041;-76
2023/01/28 07:50:04;;;;;;;9.48;3.40;;;;;;;6.25;100.00;101618.00;5019234;28;20057;-76
2023/01/28 07:52:37;;;;;;;11.18;3.20;;;;;;;6.26;100.00;101620.66;5030801;28;20329;-76
2023/01/28 07:55:08;;;;;;;7.85;2.97;;;;;;;6.27;100.00;101622.44;5028969;28;20526;-76
2023/01/28 07:57:37;;;;;;;9.55;3.22;;;;;;;6.31;100.00;101612.34;5027411;28;20545;-76
2023/01/28 08:00:06;;;;;;;8.20;3.40;;;;;;;6.33;100.00;101616.78;5028996;28;20060;-76
2023/01/28 08:02:34;;;;;;;7.32;3.10;;;;;;;6.33;100.00;101611.66;5027448;28;20046;-75
2023/01/28 08:05:03;;;;;;;9.30;3.40;;;;;;;6.37;100.00;101603.34;5029169;28;20117;-76
2023/01/28 08:07:32;;;;;;;6.45;3.13;;;;;;;6.37;100.00;101608.47;5028357;28;20046;-76
2023/01/28 08:10:00;;;;;;;8.60;3.38;;;;;;;6.39;100.00;101606.91;5030171;28;20053;-76
2023/01/28 08:12:30;;;;;;;6.32;3.03;;;;;;;6.39;100.00;101604.31;5028090;28;20053;-76
2023/01/28 08:14:59;;;;;;;6.25;2.75;;;;;;;6.40;100.00;101605.19;5029775;28;20057;-76
2023/01/28 08:17:29;;;;;;;3.85;2.75;;;;;;;6.42;100.00;101607.06;5025299;28;20057;-76
2023/01/28 08:19:57;;;;;;;6.05;2.70;;;;;;;6.44;100.00;101605.47;5029404;28;20054;-76
2023/01/28 08:22:27;;;;;;;8.77;3.13;;;;;;;6.46;100.00;101609.03;5027364;28;20042;-76
2023/01/28 08:24:55;;;;;;;3.30;2.25;;;;;;;6.48;100.00;101601.38;5031871;28;20057;-77
2023/01/28 08:27:24;;;;;;;7.85;2.42;;;;;;;6.50;100.00;101599.78;5033318;28;20047;-76
2023/01/28 08:29:54;;;;;;;7.75;2.47;;;;;;;6.52;100.00;101598.22;5026670;28;20103;-77
2023/01/28 08:32:23;;;;;;;4.85;2.25;;;;;;;6.54;100.00;101590.59;5027820;28;20046;-76
2023/01/28 08:34:51;;;;;;;4.30;2.08;;;;;;;6.56;100.00;101583.88;5034808;28;20077;-77
2023/01/28 08:37:20;;;;;;;6.95;2.53;;;;;;;6.55;100.00;101584.63;5034619;28;20461;-77
2023/01/28 08:39:49;;;;;;;8.23;3.42;;;;;;;6.50;100.00;101587.84;5032104;28;20045;-76
2023/01/28 08:42:17;;;;;;;9.90;2.60;;;;;;;6.46;100.00;101573.03;5026963;28;20112;-76
2023/01/28 08:44:46;;;;;;;13.32;3.53;;;;;;;6.46;100.00;101573.03;5028052;28;20052;-77
2023/01/28 08:47:17;;;;;;;9.90;3.25;;;;;;;6.48;100.00;101571.44;5033021;28;20045;-76
2023/01/28 08:49:46;;;;;;;6.45;3.25;;;;;;;6.50;100.00;101572.44;5033393;28;20525;-76
2023/01/28 08:52:14;;;;;;;12.15;3.80;;;;;;;6.54;100.00;101557.16;5027306;28;20045;-77
2023/01/28 08:54:43;;;;;;;8.10;3.08;;;;;;;6.57;100.00;101559.91;5029253;28;20050;-76
2023/01/28 08:57:11;;;;;;;8.48;3.38;;;;;;;6.60;100.00;101566.13;5033009;28;20114;-76
2023/01/28 08:59:43;;;;;;;12.18;4.20;;;;;;;6.62;100.00;101566.19;5030209;28;20488;-76
2023/01/28 09:02:16;;;;;;;10.75;4.88;;;;;;;6.62;100.00;101568.78;5028827;28;20045;-76
2023/01/28 09:04:44;;;;;;;8.65;3.47;;;;;;;6.63;100.00;101571.44;5032569;28;20053;-76
2023/01/28 09:07:13;;;;;;;10.68;3.47;;;;;;;6.65;100.00;101559.56;5030986;28;20081;-76
2023/01/28 09:09:41;;;;;;;12.00;4.22;;;;;;;6.66;100.00;101565.59;5025752;28;20049;-77
2023/01/28 09:12:11;;;;;;;8.23;4.32;;;;;;;6.66;100.00;101565.59;5023619;28;20064;-76
2023/01/28 09:14:39;;;;;;;11.30;4.55;;;;;;;6.68;100.00;101562.31;5029157;28;20128;-77
2023/01/28 09:17:08;;;;;;;10.15;4.80;;;;;;;6.70;100.00;101553.00;5027624;28;20091;-76
2023/01/28 09:19:38;;;;;;;12.93;4.47;;;;;;;6.72;100.00;101547.94;5027721;28;20042;-77
2023/01/28 09:22:07;;;;;;;9.05;3.88;;;;;;;6.71;100.00;101553.88;5031101;28;20056;-76
2023/01/28 09:24:35;;;;;;;14.52;4.55;;;;;;;6.70;100.00;101549.53;5030017;28;20045;-76
2023/01/28 09:27:04;;;;;;;10.88;4.13;;;;;;;6.68;100.00;101549.44;5034848;28;20049;-77
2023/01/28 09:29:35;;;;;;;6.75;4.25;;;;;;;6.69;100.00;101565.78;5026310;28;20049;-77
2023/01/28 09:32:03;;;;;;;8.77;3.92;;;;;;;6.71;100.00;101556.44;5033441;28;20060;-78
2023/01/28 09:34:32;;;;;;;11.15;3.88;;;;;;;6.72;100.00;101556.53;5035384;28;20065;-77
2023/01/28 09:37:02;;;;;;;8.02;3.35;;;;;;;6.77;100.00;101554.25;5033364;28;20050;-78
2023/01/28 09:39:31;;;;;;;8.07;3.55;;;;;;;6.77;100.00;101559.38;5033368;28;20057;-78
2023/01/28 09:42:15;;;;;;;12.95;4.68;;;;;;;6.79;100.00;101559.47;5030564;28;20068;-78
2023/01/28 09:44:59;;;;;;;7.90;3.83;;;;;;;6.81;100.00;101558.75;5031661;28;20049;-77
2023/01/28 09:47:33;;;;;;;16.38;3.67;;;;;;;6.83;100.00;101546.88;5023483;28;20050;-77
2023/01/28 09:50:06;;;;;;;9.20;3.42;;;;;;;6.86;100.00;101552.19;5030650;28;20073;-76
2023/01/28 09:52:40;;;;;;;6.15;3.22;;;;;;;6.87;100.00;101551.41;5030753;28;20049;-78
2023/01/28 09:55:17;;;;;;;7.85;3.38;;;;;;;6.89;100.00;101544.66;5032226;28;20048;-77
2023/01/28 09:57:50;;;;;;;6.05;3.38;;;;;;;6.88;100.00;101537.72;5034726;28;20373;-77
2023/01/28 10:00:23;;;;;;;7.78;3.47;;;;;;;6.91;100.00;101542.16;5037549;28;20049;-75
2023/01/28 10:03:09;;;;;;;6.13;2.70;;;;;;;6.88;100.00;101530.00;5031182;28;20081;-75
2023/01/28 10:05:49;;;;;;;8.02;3.40;;;;;;;6.92;100.00;101531.09;5026679;28;20107;-75
2023/01/28 10:08:37;;;;;;;8.55;3.42;;;;;;;6.93;100.00;101544.03;5019327;28;20103;-75
2023/01/28 10:11:21;;;;;;;8.98;2.70;;;;;;;6.93;100.00;101546.59;5028030;28;20053;-74
2023/01/28 10:13:56;;;;;;;8.70;3.33;;;;;;;6.93;100.00;101544.03;5014706;28;20116;-74
2023/01/28 10:16:30;;;;;;;7.78;3.25;;;;;;;6.97;100.00;101546.78;5027752;28;20052;-74
2023/01/28 10:19:03;;;;;;;9.95;2.85;;;;;;;6.99;100.00;101545.19;5025263;28;20049;-74
2023/01/28 10:21:37;;;;;;;6.43;2.67;;;;;;;7.00;100.00;101554.66;5023036;28;20543;-74
2023/01/28 10:24:16;;;;;;;5.13;2.47;;;;;;;6.98;100.00;101553.69;5031552;28;20072;-74
2023/01/28 10:26:45;;;;;;;6.70;2.08;;;;;;;6.98;100.00;101548.53;5026515;28;20376;-75
2023/01/28 10:29:17;;;;;;;7.25;2.88;;;;;;;6.90;100.00;101530.13;5030616;28;20553;-75
2023/01/28 10:31:53;;;;;;;4.30;1.73;;;;;;;6.90;100.00;101536.13;5029240;28;20054;-74
2023/01/28 10:34:23;;;;;;;4.22;2.13;;;;;;;6.86;100.00;101531.63;5028342;28;20041;-74
2023/01/28 10:36:52;;;;;;;4.05;1.85;;;;;;;6.76;100.00;101506.19;5019323;28;20103;-74
2023/01/28 10:39:25;;;;;;;5.60;1.75;;;;;;;6.80;100.00;101518.38;5024874;28;20049;-75
2023/01/28 10:41:53;;;;;;;2.97;1.60;;;;;;;6.78;100.00;101509.72;5016613;28;20517;-75
2023/01/28 10:44:32;;;;;;;4.70;2.03;;;;;;;6.77;100.00;101509.63;5024792;28;20111;-75
2023/01/28 10:47:03;;;;;;;4.97;1.95;;;;;;;6.76;100.00;101506.19;5026600;28;20045;-74
2023/01/28 10:49:39;;;;;;;4.70;2.40;;;;;;;6.77;100.00;101500.22;5031101;28;20049;-75
2023/01/28 10:52:13;;;;;;;3.60;1.90;;;;;;;6.77;100.00;101486.47;5029457;28;20049;-74
2023/01/28 10:54:43;;;;;;;3.63;1.92;;;;;;;6.84;100.00;101493.75;5021063;28;20050;-74
2023/01/28 10:57:15;;;;;;;7.43;2.28;;;;;;;6.86;100.00;101485.31;5028122;28;20049;-75
2023/01/28 10:59:44;;;;;;;3.40;1.98;;;;;;;6.87;100.00;101483.63;5032686;28;20057;-75
2023/01/28 11:02:30;;;;;;;3.42;1.15;;;;;;;6.89;100.00;101477.78;5030646;28;20041;-74
2023/01/28 11:05:07;;;;;;;3.00;1.30;;;;;;;6.90;100.00;101484.69;5029909;28;20509;-75
2023/01/28 11:07:36;;;;;;;5.45;1.35;;;;;;;6.88;100.00;101478.56;5028964;28;20056;-74
2023/01/28 11:10:31;;;;;;;1.30;0.80;;;;;;;6.91;100.00;101481.28;5028680;28;20137;-75
2023/01/28 11:13:01;;;;;;;1.52;0.80;;;;;;;6.94;100.00;101475.47;5025442;28;20049;-74
2023/01/28 11:15:30;;;;;;;2.13;0.85;;;;;;;6.92;100.00;101470.22;5021700;28;20525;-74
2023/01/28 11:18:01;;;;;;;4.20;0.82;;;;;;;6.91;100.00;101471.00;5028353;28;20053;-75
2023/01/28 11:20:35;;;;;;;3.47;1.10;;;;;;;6.89;100.00;101472.63;5029947;28;20052;-75
2023/01/28 11:23:04;;;;;;;1.25;0.60;;;;;;;6.90;100.00;101471.81;5029714;28;20053;-74
2023/01/28 11:25:36;;;;;;;1.42;1.00;;;;;;;6.91;100.00;101467.56;5028392;28;20052;-75
2023/01/28 11:28:16;;;;;;;2.33;1.02;;;;;;;6.90;100.00;101463.22;5019476;28;20056;-75
2023/01/28 11:30:51;;;;;;;1.17;1.02;;;;;;;6.84;100.00;101458.59;5029887;28;20057;-75
2023/01/28 11:33:23;;;;;;;1.80;0.70;;;;;;;6.78;100.00;101457.38;5028542;28;20041;-75
2023/01/28 11:35:55;;;;;;;2.20;0.93;;;;;;;6.72;100.00;101453.66;5029723;28;20049;-75
2023/01/28 11:38:25;;;;;;;2.47;0.90;;;;;;;6.71;100.00;101453.56;5031326;28;20483;-75
2023/01/28 11:40:56;;;;;;;1.10;0.80;;;;;;;6.71;100.00;101454.47;5028526;28;20290;-76
2023/01/28 11:43:29;;;;;;;1.85;0.88;;;;;;;6.70;100.00;101462.09;5024749;28;20049;-75
2023/01/28 11:46:09;;;;;;;3.78;0.90;;;;;;;6.67;100.00;101455.09;5028338;28;20748;-76
2023/01/28 11:48:48;;;;;;;1.92;1.33;;;;;;;6.66;100.00;101447.28;5023333;28;20081;-75
2023/01/28 11:51:31;;;;;;;1.30;0.90;;;;;;;6.64;100.00;101448.88;5018336;28;20064;-75
2023/01/28 11:54:06;;;;;;;;;;;;;;;6.64;100.00;101438.59;5024111;28;20045;-75
2023/01/28 11:56:53;;;;;;;3.63;0.88;;;;;;;6.65;100.00;101430.09;5027670;28;19921;-75
2023/01/28 11:59:40;;;;;;;1.77;0.80;;;;;;;6.64;100.00;101429.22;5030978;28;20530;-74
2023/01/28 12:02:24;;;;;;;1.25;0.85;;;;;;;6.65;100.00;101436.13;5033184;28;20052;-75
2023/01/28 12:05:09;;;;;;;1.38;0.90;;;;;;;6.69;100.00;101439.78;5027914;28;20049;-75
2023/01/28 12:07:43;;;;;;;2.22;1.02;;;;;;;6.72;100.00;101437.34;5024177;28;20046;-75
2023/01/28 12:10:21;;;;;;;0.80;0.57;;;;;;;6.76;100.00;101439.31;5031297;28;20049;-75
2023/01/28 12:13:06;;;;;;;1.42;0.40;;;;;;;6.79;100.00;101434.31;5031885;28;20045;-75
2023/01/28 12:16:04;;;;;;;0.82;0.60;;;;;;;6.83;100.00;101436.28;5033917;28;20537;-75